THY8ZQ LTAC-LTFM
Flight info
| Callsign | THY8ZQ |
|---|---|
| Flight time | 0h 53m |
| Altitude | 28000 |
| Route | YAVRU A4 ERSEN |
| Aircraft | A320/M-SDE3FGHIRWY/LB1 |
Departure
| Time | 2026-05-07 22:19 |
|---|---|
| Airport | Esenboğa International Airport (LTAC) |
Arrival
| Time | 2026-05-07 23:13 |
|---|---|
| Airport | İstanbul Airport (LTFM) |
| Time | Latitude | Longitude | Altitude | Speed | Heading |
|---|---|---|---|---|---|
| 2026-05-07 21:46 | 40.11633 | 32.99179 | 3113 ft | 0 kts | 149° |
| 2026-05-07 22:02 | 40.11652 | 32.99165 | 3113 ft | 4 kts | 149° |
| 2026-05-07 22:03 | 40.11675 | 32.99146 | 3113 ft | 4 kts | 146° |
| 2026-05-07 22:03 | 40.11692 | 32.99131 | 3113 ft | 0 kts | 145° |
| 2026-05-07 22:09 | 40.11690 | 32.99136 | 3113 ft | 1 kts | 121° |
| 2026-05-07 22:09 | 40.11693 | 32.99143 | 3113 ft | 1 kts | 72° |
| 2026-05-07 22:09 | 40.11699 | 32.99162 | 3113 ft | 3 kts | 63° |
| 2026-05-07 22:10 | 40.11714 | 32.99197 | 3113 ft | 5 kts | 63° |
| 2026-05-07 22:10 | 40.11731 | 32.99250 | 3113 ft | 8 kts | 69° |
| 2026-05-07 22:10 | 40.11752 | 32.99325 | 3113 ft | 10 kts | 72° |
| 2026-05-07 22:10 | 40.11771 | 32.99422 | 3113 ft | 12 kts | 80° |
| 2026-05-07 22:11 | 40.11784 | 32.99542 | 3113 ft | 15 kts | 83° |
| 2026-05-07 22:11 | 40.11796 | 32.99683 | 3113 ft | 17 kts | 77° |
| 2026-05-07 22:11 | 40.11768 | 32.99826 | 3116 ft | 16 kts | 124° |
| 2026-05-07 22:11 | 40.11707 | 32.99937 | 3122 ft | 14 kts | 127° |
| 2026-05-07 22:12 | 40.11653 | 33.00032 | 3126 ft | 12 kts | 127° |
| 2026-05-07 22:12 | 40.11613 | 33.00110 | 3132 ft | 8 kts | 116° |
| 2026-05-07 22:12 | 40.11612 | 33.00160 | 3135 ft | 5 kts | 70° |
| 2026-05-07 22:12 | 40.11638 | 33.00192 | 3136 ft | 5 kts | 37° |
| 2026-05-07 22:13 | 40.11669 | 33.00223 | 3136 ft | 6 kts | 36° |
| 2026-05-07 22:13 | 40.11704 | 33.00256 | 3137 ft | 6 kts | 37° |
| 2026-05-07 22:13 | 40.11741 | 33.00292 | 3138 ft | 7 kts | 36° |
| 2026-05-07 22:13 | 40.11768 | 33.00317 | 3139 ft | 7 kts | 36° |
| 2026-05-07 22:14 | 40.11812 | 33.00359 | 3140 ft | 8 kts | 36° |
| 2026-05-07 22:14 | 40.11860 | 33.00404 | 3142 ft | 9 kts | 36° |
| 2026-05-07 22:14 | 40.11911 | 33.00454 | 3143 ft | 10 kts | 37° |
| 2026-05-07 22:14 | 40.11966 | 33.00508 | 3144 ft | 10 kts | 37° |
| 2026-05-07 22:15 | 40.12026 | 33.00566 | 3146 ft | 11 kts | 36° |
| 2026-05-07 22:15 | 40.12092 | 33.00626 | 3148 ft | 12 kts | 35° |
| 2026-05-07 22:15 | 40.12161 | 33.00689 | 3149 ft | 13 kts | 35° |
| 2026-05-07 22:15 | 40.12234 | 33.00758 | 3151 ft | 13 kts | 37° |
| 2026-05-07 22:16 | 40.12309 | 33.00833 | 3154 ft | 14 kts | 37° |
| 2026-05-07 22:16 | 40.12389 | 33.00912 | 3155 ft | 15 kts | 37° |
| 2026-05-07 22:16 | 40.12473 | 33.00994 | 3157 ft | 16 kts | 36° |
| 2026-05-07 22:16 | 40.12565 | 33.01078 | 3159 ft | 17 kts | 36° |
| 2026-05-07 22:17 | 40.12662 | 33.01170 | 3160 ft | 18 kts | 36° |
| 2026-05-07 22:17 | 40.12752 | 33.01251 | 3161 ft | 14 kts | 36° |
| 2026-05-07 22:17 | 40.12824 | 33.01340 | 3162 ft | 15 kts | 61° |
| 2026-05-07 22:17 | 40.12802 | 33.01462 | 3163 ft | 15 kts | 127° |
| 2026-05-07 22:18 | 40.12710 | 33.01526 | 3164 ft | 16 kts | 195° |
| 2026-05-07 22:18 | 40.12635 | 33.01458 | 3163 ft | 41 kts | 217° |
| 2026-05-07 22:18 | 40.12196 | 33.01036 | 3153 ft | 112 kts | 217° |
| 2026-05-07 22:19 | 40.11418 | 33.00291 | 3133 ft | 163 kts | 216° |
| 2026-05-07 22:19 | 40.10413 | 32.99337 | 3400 ft | 185 kts | 216° |
| 2026-05-07 22:19 | 40.09365 | 32.98311 | 4136 ft | 188 kts | 222° |
| 2026-05-07 22:19 | 40.08407 | 32.97161 | 4955 ft | 187 kts | 224° |
| 2026-05-07 22:20 | 40.07407 | 32.95956 | 5384 ft | 206 kts | 224° |
| 2026-05-07 22:20 | 40.06288 | 32.94607 | 5701 ft | 232 kts | 224° |
| 2026-05-07 22:20 | 40.05055 | 32.93124 | 6305 ft | 247 kts | 224° |
| 2026-05-07 22:20 | 40.03773 | 32.91586 | 7143 ft | 252 kts | 224° |
| 2026-05-07 22:21 | 40.02614 | 32.89873 | 8021 ft | 254 kts | 243° |
| 2026-05-07 22:21 | 40.02092 | 32.87699 | 8916 ft | 252 kts | 268° |
| 2026-05-07 22:21 | 40.02328 | 32.85383 | 9479 ft | 269 kts | 292° |
| 2026-05-07 22:21 | 40.03343 | 32.83297 | 10186 ft | 279 kts | 307° |
| 2026-05-07 22:22 | 40.04565 | 32.81198 | 10506 ft | 302 kts | 307° |
| 2026-05-07 22:22 | 40.05876 | 32.78922 | 10726 ft | 325 kts | 307° |
| 2026-05-07 22:22 | 40.07262 | 32.76499 | 11172 ft | 339 kts | 307° |
| 2026-05-07 22:22 | 40.08685 | 32.74009 | 11816 ft | 344 kts | 307° |
| 2026-05-07 22:23 | 40.10125 | 32.71486 | 12525 ft | 349 kts | 307° |
| 2026-05-07 22:23 | 40.11579 | 32.68934 | 13244 ft | 352 kts | 307° |
| 2026-05-07 22:23 | 40.13051 | 32.66346 | 13969 ft | 356 kts | 307° |
| 2026-05-07 22:23 | 40.14537 | 32.63737 | 14621 ft | 359 kts | 307° |
| 2026-05-07 22:24 | 40.16033 | 32.61111 | 15265 ft | 362 kts | 307° |
| 2026-05-07 22:24 | 40.17520 | 32.58497 | 15875 ft | 365 kts | 307° |
| 2026-05-07 22:24 | 40.19039 | 32.55823 | 16163 ft | 366 kts | 307° |
| 2026-05-07 22:24 | 40.20599 | 32.53194 | 16214 ft | 366 kts | 313° |
| 2026-05-07 22:25 | 40.22410 | 32.50865 | 16220 ft | 365 kts | 317° |
| 2026-05-07 22:25 | 40.24263 | 32.48587 | 16226 ft | 365 kts | 317° |
| 2026-05-07 22:25 | 40.26113 | 32.46314 | 16233 ft | 365 kts | 317° |
| 2026-05-07 22:25 | 40.27964 | 32.44038 | 16231 ft | 365 kts | 317° |
| 2026-05-07 22:26 | 40.29807 | 32.41764 | 16229 ft | 364 kts | 317° |
| 2026-05-07 22:26 | 40.31650 | 32.39488 | 16225 ft | 364 kts | 317° |
| 2026-05-07 22:26 | 40.33489 | 32.37211 | 16227 ft | 364 kts | 317° |
| 2026-05-07 22:26 | 40.35328 | 32.34934 | 16225 ft | 364 kts | 317° |
| 2026-05-07 22:27 | 40.37167 | 32.32655 | 16225 ft | 364 kts | 317° |
| 2026-05-07 22:27 | 40.39004 | 32.30375 | 16227 ft | 364 kts | 317° |
| 2026-05-07 22:27 | 40.40845 | 32.28091 | 16241 ft | 365 kts | 317° |
| 2026-05-07 22:27 | 40.42706 | 32.25782 | 16767 ft | 369 kts | 317° |
| 2026-05-07 22:28 | 40.44573 | 32.23464 | 17483 ft | 371 kts | 317° |
| 2026-05-07 22:28 | 40.46380 | 32.21032 | 18138 ft | 374 kts | 310° |
| 2026-05-07 22:28 | 40.47828 | 32.18176 | 18733 ft | 379 kts | 299° |
| 2026-05-07 22:28 | 40.48868 | 32.14972 | 19304 ft | 383 kts | 293° |
| 2026-05-07 22:29 | 40.49829 | 32.11701 | 19880 ft | 385 kts | 293° |
| 2026-05-07 22:29 | 40.50803 | 32.08413 | 20465 ft | 387 kts | 294° |
| 2026-05-07 22:29 | 40.51784 | 32.05113 | 21042 ft | 389 kts | 294° |
| 2026-05-07 22:29 | 40.52774 | 32.01788 | 21580 ft | 392 kts | 294° |
| 2026-05-07 22:30 | 40.53767 | 31.98440 | 22095 ft | 394 kts | 294° |
| 2026-05-07 22:30 | 40.54761 | 31.95074 | 22605 ft | 396 kts | 294° |
| 2026-05-07 22:30 | 40.55758 | 31.91684 | 23121 ft | 399 kts | 294° |
| 2026-05-07 22:30 | 40.56760 | 31.88273 | 23613 ft | 401 kts | 294° |
| 2026-05-07 22:31 | 40.57768 | 31.84840 | 24060 ft | 404 kts | 294° |
| 2026-05-07 22:31 | 40.58759 | 31.81371 | 24461 ft | 406 kts | 293° |
| 2026-05-07 22:31 | 40.59684 | 31.77846 | 24881 ft | 409 kts | 291° |
| 2026-05-07 22:31 | 40.60564 | 31.74278 | 25284 ft | 411 kts | 291° |
| 2026-05-07 22:32 | 40.61423 | 31.70684 | 25643 ft | 413 kts | 290° |
| 2026-05-07 22:32 | 40.62284 | 31.67057 | 26018 ft | 416 kts | 291° |
| 2026-05-07 22:32 | 40.63156 | 31.63413 | 26420 ft | 418 kts | 291° |
| 2026-05-07 22:32 | 40.64040 | 31.59761 | 26828 ft | 420 kts | 291° |
| 2026-05-07 22:33 | 40.64939 | 31.56091 | 27249 ft | 422 kts | 291° |
| 2026-05-07 22:33 | 40.65849 | 31.52402 | 27660 ft | 424 kts | 291° |
| 2026-05-07 22:33 | 40.66765 | 31.48703 | 28045 ft | 426 kts | 291° |
| 2026-05-07 22:33 | 40.67683 | 31.44989 | 28172 ft | 426 kts | 291° |
| 2026-05-07 22:34 | 40.68595 | 31.41280 | 28178 ft | 426 kts | 291° |
| 2026-05-07 22:34 | 40.70413 | 31.33832 | 28180 ft | 427 kts | 291° |
| 2026-05-07 22:35 | 40.72223 | 31.26370 | 28179 ft | 427 kts | 291° |
| 2026-05-07 22:35 | 40.74035 | 31.18913 | 28169 ft | 427 kts | 291° |
| 2026-05-07 22:36 | 40.75841 | 31.11446 | 28150 ft | 428 kts | 290° |
| 2026-05-07 22:36 | 40.77644 | 31.03969 | 28135 ft | 428 kts | 290° |
| 2026-05-07 22:37 | 40.79447 | 30.96481 | 28139 ft | 429 kts | 290° |
| 2026-05-07 22:37 | 40.81248 | 30.88969 | 28137 ft | 429 kts | 290° |
| 2026-05-07 22:38 | 40.83039 | 30.81449 | 28141 ft | 429 kts | 290° |
| 2026-05-07 22:38 | 40.84826 | 30.73927 | 28135 ft | 430 kts | 290° |
| 2026-05-07 22:39 | 40.86583 | 30.66375 | 28139 ft | 431 kts | 287° |
| 2026-05-07 22:39 | 40.87777 | 30.58594 | 28139 ft | 432 kts | 284° |
| 2026-05-07 22:40 | 40.88934 | 30.50796 | 28126 ft | 433 kts | 284° |
| 2026-05-07 22:40 | 40.90080 | 30.42987 | 28125 ft | 433 kts | 284° |
| 2026-05-07 22:40 | 40.90972 | 30.39224 | 28108 ft | 427 kts | 299° |
| 2026-05-07 22:41 | 40.92674 | 30.36040 | 27198 ft | 425 kts | 314° |
| 2026-05-07 22:41 | 40.94901 | 30.33372 | 25480 ft | 442 kts | 322° |
| 2026-05-07 22:41 | 40.97356 | 30.30865 | 24513 ft | 444 kts | 322° |
| 2026-05-07 22:41 | 40.99757 | 30.28416 | 24228 ft | 427 kts | 322° |
| 2026-05-07 22:42 | 41.01970 | 30.25900 | 23981 ft | 412 kts | 316° |
| 2026-05-07 22:42 | 41.03940 | 30.23231 | 23727 ft | 399 kts | 313° |
| 2026-05-07 22:42 | 41.05725 | 30.20516 | 23592 ft | 383 kts | 309° |
| 2026-05-07 22:42 | 41.07024 | 30.17576 | 23458 ft | 372 kts | 289° |
| 2026-05-07 22:43 | 41.07274 | 30.14234 | 23322 ft | 365 kts | 264° |
| 2026-05-07 22:43 | 41.06473 | 30.11116 | 22977 ft | 357 kts | 241° |
| 2026-05-07 22:43 | 41.04835 | 30.08668 | 22246 ft | 355 kts | 226° |
| 2026-05-07 22:43 | 41.03000 | 30.06491 | 21490 ft | 353 kts | 224° |
| 2026-05-07 22:44 | 41.01156 | 30.04377 | 20762 ft | 349 kts | 224° |
| 2026-05-07 22:44 | 40.99323 | 30.02302 | 20063 ft | 344 kts | 224° |
| 2026-05-07 22:44 | 40.97516 | 30.00249 | 19381 ft | 340 kts | 224° |
| 2026-05-07 22:44 | 40.95733 | 29.98210 | 18724 ft | 337 kts | 224° |
| 2026-05-07 22:45 | 40.93979 | 29.96188 | 18045 ft | 332 kts | 224° |
| 2026-05-07 22:45 | 40.92260 | 29.94196 | 17521 ft | 326 kts | 224° |
| 2026-05-07 22:45 | 40.90556 | 29.92221 | 17070 ft | 324 kts | 224° |
| 2026-05-07 22:45 | 40.88915 | 29.90199 | 16613 ft | 320 kts | 232° |
| 2026-05-07 22:46 | 40.87690 | 29.87772 | 16214 ft | 316 kts | 247° |
| 2026-05-07 22:46 | 40.87003 | 29.85069 | 16063 ft | 310 kts | 261° |
| 2026-05-07 22:46 | 40.86826 | 29.82248 | 15913 ft | 308 kts | 271° |
| 2026-05-07 22:46 | 40.86798 | 29.79417 | 15765 ft | 308 kts | 270° |
| 2026-05-07 22:47 | 40.86765 | 29.76587 | 15616 ft | 308 kts | 270° |
| 2026-05-07 22:47 | 40.86730 | 29.73758 | 15462 ft | 307 kts | 270° |
| 2026-05-07 22:47 | 40.86694 | 29.70930 | 15018 ft | 309 kts | 270° |
| 2026-05-07 22:47 | 40.86656 | 29.68116 | 14393 ft | 306 kts | 270° |
| 2026-05-07 22:48 | 40.86621 | 29.65312 | 13717 ft | 304 kts | 270° |
| 2026-05-07 22:48 | 40.86794 | 29.62554 | 13017 ft | 300 kts | 279° |
| 2026-05-07 22:48 | 40.87080 | 29.59838 | 12359 ft | 297 kts | 279° |
| 2026-05-07 22:48 | 40.87360 | 29.57157 | 11836 ft | 291 kts | 279° |
| 2026-05-07 22:49 | 40.87631 | 29.54531 | 11419 ft | 289 kts | 279° |
| 2026-05-07 22:49 | 40.87896 | 29.51945 | 11086 ft | 276 kts | 278° |
| 2026-05-07 22:49 | 40.88399 | 29.49602 | 11028 ft | 262 kts | 300° |
| 2026-05-07 22:49 | 40.89572 | 29.47784 | 11035 ft | 262 kts | 324° |
| 2026-05-07 22:50 | 40.91231 | 29.46822 | 11037 ft | 264 kts | 349° |
| 2026-05-07 22:50 | 40.93075 | 29.46639 | 11036 ft | 266 kts | 355° |
| 2026-05-07 22:50 | 40.94923 | 29.46522 | 11036 ft | 266 kts | 355° |
| 2026-05-07 22:50 | 40.96773 | 29.46403 | 11037 ft | 266 kts | 354° |
| 2026-05-07 22:51 | 40.98573 | 29.45935 | 11038 ft | 264 kts | 341° |
| 2026-05-07 22:51 | 41.00320 | 29.45187 | 11037 ft | 264 kts | 341° |
| 2026-05-07 22:51 | 41.02067 | 29.44441 | 11037 ft | 264 kts | 341° |
| 2026-05-07 22:51 | 41.03816 | 29.43695 | 11036 ft | 264 kts | 341° |
| 2026-05-07 22:52 | 41.05563 | 29.42949 | 11038 ft | 264 kts | 339° |
| 2026-05-07 22:52 | 41.07197 | 29.41865 | 11037 ft | 263 kts | 326° |
| 2026-05-07 22:52 | 41.08732 | 29.40540 | 11035 ft | 263 kts | 326° |
| 2026-05-07 22:52 | 41.10266 | 29.39220 | 11034 ft | 263 kts | 326° |
| 2026-05-07 22:53 | 41.11802 | 29.37903 | 11035 ft | 263 kts | 326° |
| 2026-05-07 22:53 | 41.13341 | 29.36582 | 11034 ft | 263 kts | 324° |
| 2026-05-07 22:53 | 41.14696 | 29.34971 | 11034 ft | 262 kts | 311° |
| 2026-05-07 22:53 | 41.15901 | 29.33188 | 11034 ft | 263 kts | 311° |
| 2026-05-07 22:54 | 41.17134 | 29.31355 | 11031 ft | 263 kts | 308° |
| 2026-05-07 22:54 | 41.17951 | 29.29239 | 11033 ft | 263 kts | 282° |
| 2026-05-07 22:54 | 41.17956 | 29.26828 | 11020 ft | 265 kts | 257° |
| 2026-05-07 22:54 | 41.17133 | 29.24636 | 10680 ft | 270 kts | 229° |
| 2026-05-07 22:55 | 41.15665 | 29.23089 | 10399 ft | 270 kts | 215° |
| 2026-05-07 22:55 | 41.14115 | 29.21701 | 10094 ft | 270 kts | 216° |
| 2026-05-07 22:55 | 41.12560 | 29.20306 | 9769 ft | 270 kts | 216° |
| 2026-05-07 22:55 | 41.11016 | 29.18915 | 9494 ft | 267 kts | 216° |
| 2026-05-07 22:56 | 41.09483 | 29.17528 | 9187 ft | 266 kts | 216° |
| 2026-05-07 22:56 | 41.07962 | 29.16151 | 8932 ft | 263 kts | 216° |
| 2026-05-07 22:56 | 41.06455 | 29.14787 | 8680 ft | 261 kts | 216° |
| 2026-05-07 22:56 | 41.04963 | 29.13438 | 8420 ft | 259 kts | 216° |
| 2026-05-07 22:57 | 41.03484 | 29.12098 | 8159 ft | 257 kts | 216° |
| 2026-05-07 22:57 | 41.02016 | 29.10770 | 7907 ft | 254 kts | 217° |
| 2026-05-07 22:57 | 41.00560 | 29.09453 | 7656 ft | 252 kts | 217° |
| 2026-05-07 22:57 | 40.99115 | 29.08147 | 7404 ft | 250 kts | 217° |
| 2026-05-07 22:58 | 40.97683 | 29.06853 | 7161 ft | 248 kts | 217° |
| 2026-05-07 22:58 | 40.96263 | 29.05570 | 6915 ft | 246 kts | 217° |
| 2026-05-07 22:58 | 40.94857 | 29.04300 | 6670 ft | 243 kts | 217° |
| 2026-05-07 22:58 | 40.93468 | 29.03047 | 6423 ft | 240 kts | 217° |
| 2026-05-07 22:59 | 40.92562 | 29.02228 | 6265 ft | 237 kts | 218° |
| 2026-05-07 22:59 | 40.91422 | 29.00734 | 6069 ft | 226 kts | 237° |
| 2026-05-07 22:59 | 40.90731 | 28.98932 | 5964 ft | 214 kts | 254° |
| 2026-05-07 22:59 | 40.90346 | 28.97080 | 5865 ft | 204 kts | 256° |
| 2026-05-07 23:00 | 40.89977 | 28.95307 | 5762 ft | 195 kts | 255° |
| 2026-05-07 23:00 | 40.89618 | 28.93605 | 5662 ft | 191 kts | 255° |
| 2026-05-07 23:00 | 40.89270 | 28.91967 | 5590 ft | 177 kts | 255° |
| 2026-05-07 23:00 | 40.88950 | 28.90460 | 5508 ft | 164 kts | 255° |
| 2026-05-07 23:01 | 40.88655 | 28.89076 | 5437 ft | 149 kts | 255° |
| 2026-05-07 23:01 | 40.88384 | 28.87801 | 5371 ft | 143 kts | 255° |
| 2026-05-07 23:01 | 40.88118 | 28.86540 | 5261 ft | 142 kts | 255° |
| 2026-05-07 23:01 | 40.87856 | 28.85289 | 5155 ft | 141 kts | 256° |
| 2026-05-07 23:02 | 40.87596 | 28.84046 | 5101 ft | 140 kts | 257° |
| 2026-05-07 23:02 | 40.87521 | 28.82770 | 5040 ft | 140 kts | 275° |
| 2026-05-07 23:02 | 40.87750 | 28.81524 | 5034 ft | 141 kts | 291° |
| 2026-05-07 23:02 | 40.88269 | 28.80416 | 5042 ft | 144 kts | 308° |
| 2026-05-07 23:03 | 40.89043 | 28.79562 | 5042 ft | 147 kts | 325° |
| 2026-05-07 23:03 | 40.89970 | 28.78962 | 5039 ft | 149 kts | 329° |
| 2026-05-07 23:03 | 40.90900 | 28.78368 | 5040 ft | 149 kts | 329° |
| 2026-05-07 23:03 | 40.91830 | 28.77772 | 5033 ft | 149 kts | 329° |
| 2026-05-07 23:04 | 40.92757 | 28.77169 | 5035 ft | 148 kts | 326° |
| 2026-05-07 23:04 | 40.93643 | 28.76497 | 5040 ft | 147 kts | 324° |
| 2026-05-07 23:04 | 40.94517 | 28.75804 | 5038 ft | 146 kts | 324° |
| 2026-05-07 23:04 | 40.95378 | 28.75120 | 5035 ft | 146 kts | 324° |
| 2026-05-07 23:05 | 40.96264 | 28.74418 | 5039 ft | 146 kts | 324° |
| 2026-05-07 23:05 | 40.97136 | 28.73758 | 5034 ft | 148 kts | 333° |
| 2026-05-07 23:05 | 40.98162 | 28.73498 | 5050 ft | 152 kts | 348° |
| 2026-05-07 23:05 | 40.99202 | 28.73379 | 5058 ft | 148 kts | 351° |
| 2026-05-07 23:06 | 41.00225 | 28.73315 | 5044 ft | 147 kts | 352° |
| 2026-05-07 23:06 | 41.01247 | 28.73275 | 5007 ft | 147 kts | 353° |
| 2026-05-07 23:06 | 41.02270 | 28.73246 | 4883 ft | 147 kts | 353° |
| 2026-05-07 23:06 | 41.03289 | 28.73223 | 4717 ft | 146 kts | 353° |
| 2026-05-07 23:07 | 41.04303 | 28.73201 | 4540 ft | 146 kts | 352° |
| 2026-05-07 23:07 | 41.05313 | 28.73181 | 4339 ft | 145 kts | 352° |
| 2026-05-07 23:07 | 41.06321 | 28.73161 | 4150 ft | 144 kts | 353° |
| 2026-05-07 23:07 | 41.07324 | 28.73141 | 3958 ft | 144 kts | 352° |
| 2026-05-07 23:08 | 41.08326 | 28.73122 | 3780 ft | 144 kts | 352° |
| 2026-05-07 23:08 | 41.09325 | 28.73103 | 3589 ft | 144 kts | 352° |
| 2026-05-07 23:08 | 41.10322 | 28.73083 | 3401 ft | 143 kts | 351° |
| 2026-05-07 23:08 | 41.11314 | 28.73064 | 3204 ft | 143 kts | 351° |
| 2026-05-07 23:09 | 41.12307 | 28.73045 | 2997 ft | 142 kts | 351° |
| 2026-05-07 23:09 | 41.13298 | 28.73026 | 2809 ft | 142 kts | 352° |
| 2026-05-07 23:09 | 41.14288 | 28.73007 | 2629 ft | 143 kts | 351° |
| 2026-05-07 23:09 | 41.15276 | 28.72988 | 2439 ft | 141 kts | 352° |
| 2026-05-07 23:10 | 41.16250 | 28.72969 | 2248 ft | 140 kts | 352° |
| 2026-05-07 23:10 | 41.17225 | 28.72950 | 2068 ft | 140 kts | 351° |
| 2026-05-07 23:10 | 41.18198 | 28.72931 | 1882 ft | 140 kts | 353° |
| 2026-05-07 23:10 | 41.19177 | 28.72912 | 1694 ft | 140 kts | 353° |
| 2026-05-07 23:11 | 41.20150 | 28.72893 | 1502 ft | 140 kts | 354° |
| 2026-05-07 23:11 | 41.21120 | 28.72875 | 1323 ft | 140 kts | 354° |
| 2026-05-07 23:11 | 41.22096 | 28.72856 | 1135 ft | 141 kts | 356° |
| 2026-05-07 23:11 | 41.23079 | 28.72836 | 953 ft | 141 kts | 358° |
| 2026-05-07 23:12 | 41.24058 | 28.72818 | 778 ft | 141 kts | 358° |
| 2026-05-07 23:12 | 41.25039 | 28.72798 | 596 ft | 142 kts | 358° |
| 2026-05-07 23:12 | 41.26023 | 28.72778 | 431 ft | 141 kts | 359° |
| 2026-05-07 23:12 | 41.27003 | 28.72755 | 357 ft | 140 kts | 359° |
| 2026-05-07 23:13 | 41.27871 | 28.72733 | 333 ft | 99 kts | 360° |
| 2026-05-07 23:13 | 41.28298 | 28.72763 | 333 ft | 31 kts | 20° |
| 2026-05-07 23:13 | 41.28388 | 28.72832 | 334 ft | 2 kts | 23° |
| 2026-05-07 23:13 | 41.28409 | 28.72844 | 334 ft | 1 kts | 25° |
| 2026-05-07 23:14 | 41.28425 | 28.72856 | 329 ft | 4 kts | 32° |
| 2026-05-07 23:14 | 41.28445 | 28.72895 | 332 ft | 7 kts | 81° |
| 2026-05-07 23:14 | 41.28417 | 28.72951 | 330 ft | 9 kts | 153° |
| 2026-05-07 23:14 | 41.28346 | 28.72966 | 333 ft | 12 kts | 175° |
| 2026-05-07 23:15 | 41.28255 | 28.72955 | 330 ft | 15 kts | 188° |
| 2026-05-07 23:15 | 41.28146 | 28.72957 | 330 ft | 17 kts | 174° |
| 2026-05-07 23:15 | 41.28020 | 28.72965 | 334 ft | 19 kts | 179° |
| 2026-05-07 23:15 | 41.27881 | 28.72969 | 331 ft | 21 kts | 179° |
| 2026-05-07 23:16 | 41.27728 | 28.72971 | 334 ft | 23 kts | 179° |
| 2026-05-07 23:16 | 41.27603 | 28.73025 | 331 ft | 19 kts | 126° |
| 2026-05-07 23:16 | 41.27498 | 28.73096 | 330 ft | 18 kts | 176° |
| 2026-05-07 23:16 | 41.27370 | 28.73098 | 334 ft | 19 kts | 180° |
| 2026-05-07 23:17 | 41.27232 | 28.73098 | 329 ft | 21 kts | 179° |
| 2026-05-07 23:17 | 41.27135 | 28.73163 | 330 ft | 16 kts | 110° |
| 2026-05-07 23:17 | 41.27106 | 28.73314 | 331 ft | 18 kts | 138° |
| 2026-05-07 23:17 | 41.26984 | 28.73348 | 331 ft | 19 kts | 150° |
| 2026-05-07 23:18 | 41.26958 | 28.73510 | 333 ft | 20 kts | 88° |
| 2026-05-07 23:18 | 41.26961 | 28.73709 | 334 ft | 23 kts | 89° |
| 2026-05-07 23:18 | 41.26921 | 28.73875 | 332 ft | 19 kts | 160° |
| 2026-05-07 23:18 | 41.26783 | 28.73877 | 332 ft | 18 kts | 178° |
| 2026-05-07 23:19 | 41.26732 | 28.73822 | 331 ft | 7 kts | 273° |
| 2026-05-07 23:19 | 41.26734 | 28.73786 | 333 ft | 1 kts | 272° |
| 2026-05-07 23:19 | 41.26734 | 28.73764 | 331 ft | 2 kts | 270° |
| 2026-05-07 23:19 | 41.26734 | 28.73760 | 331 ft | 0 kts | 269° |